createdAt,value
2018-08-08T00:00:13.500Z,20.30
2018-08-08T00:02:42.250Z,20.30
2018-08-08T00:05:19.246Z,20.20
2018-08-08T00:07:58.738Z,20.20
2018-08-08T00:10:27.316Z,20.20
2018-08-08T00:12:55.840Z,20.10
2018-08-08T00:15:24.341Z,20.10
2018-08-08T00:17:52.906Z,20.00
2018-08-08T00:20:21.505Z,20.00
2018-08-08T00:22:49.989Z,20.00
2018-08-08T00:25:18.530Z,20.00
2018-08-08T00:27:47.094Z,20.00
2018-08-08T00:30:16.358Z,20.00
2018-08-08T00:32:45.450Z,20.00
2018-08-08T00:35:13.936Z,20.00
2018-08-08T00:37:42.481Z,19.90
2018-08-08T00:40:12.949Z,19.90
2018-08-08T00:42:42.197Z,19.80
2018-08-08T00:45:12.729Z,19.80
2018-08-08T00:47:42.170Z,19.80
2018-08-08T00:50:11.986Z,19.80
2018-08-08T00:52:41.041Z,19.80
2018-08-08T00:55:10.214Z,19.80
2018-08-08T00:57:39.345Z,19.80
2018-08-08T01:00:09.825Z,19.70
2018-08-08T01:02:38.395Z,19.70
2018-08-08T01:05:08.765Z,19.70
2018-08-08T01:07:37.288Z,19.70
2018-08-08T01:10:06.325Z,19.70
2018-08-08T01:12:34.856Z,19.60
2018-08-08T01:15:03.771Z,19.60
2018-08-08T01:17:32.250Z,19.60
2018-08-08T01:20:00.761Z,19.60
2018-08-08T01:22:29.426Z,19.60
2018-08-08T01:24:57.941Z,19.60
2018-08-08T01:27:26.490Z,19.50
2018-08-08T01:29:55.006Z,19.50
2018-08-08T01:32:23.553Z,19.50
2018-08-08T01:34:52.069Z,19.50
2018-08-08T01:37:21.141Z,19.50
2018-08-08T01:39:49.641Z,19.50
2018-08-08T01:42:18.119Z,19.50
2018-08-08T01:44:46.613Z,19.50
2018-08-08T01:47:15.121Z,19.50
2018-08-08T01:49:43.645Z,19.40
2018-08-08T01:52:12.121Z,19.40
2018-08-08T01:54:40.637Z,19.30
2018-08-08T01:57:09.186Z,19.30
2018-08-08T01:59:37.769Z,19.20
2018-08-08T02:02:06.443Z,19.20
2018-08-08T02:04:35.005Z,19.30
2018-08-08T02:07:03.537Z,19.20
2018-08-08T02:09:32.041Z,19.20
2018-08-08T02:12:00.521Z,19.10
2018-08-08T02:14:29.128Z,19.10
2018-08-08T02:16:57.585Z,19.10
2018-08-08T02:19:26.195Z,19.10
2018-08-08T02:21:54.784Z,19.10
2018-08-08T02:24:23.314Z,19.10
2018-08-08T02:26:52.150Z,19.10
2018-08-08T02:29:20.742Z,19.10
2018-08-08T02:31:49.697Z,19.00
2018-08-08T02:34:18.247Z,19.00
2018-08-08T02:36:46.885Z,19.00
2018-08-08T02:39:15.491Z,19.00
2018-08-08T02:41:44.013Z,18.90
2018-08-08T02:44:12.546Z,18.90
2018-08-08T02:46:41.117Z,18.90
2018-08-08T02:49:09.622Z,18.80
2018-08-08T02:51:38.105Z,18.80
2018-08-08T02:54:06.589Z,18.80
2018-08-08T02:56:35.089Z,18.70
2018-08-08T02:59:03.625Z,18.70
2018-08-08T03:01:32.125Z,18.70
2018-08-08T03:04:00.613Z,18.70
2018-08-08T03:06:29.133Z,18.70
2018-08-08T03:08:57.677Z,18.70
2018-08-08T03:11:26.169Z,18.70
2018-08-08T03:13:54.681Z,18.70
2018-08-08T03:16:23.225Z,18.70
2018-08-08T03:18:51.681Z,18.70
2018-08-08T03:21:20.158Z,18.70
2018-08-08T03:23:48.665Z,18.60
2018-08-08T03:26:17.213Z,18.70
2018-08-08T03:28:45.646Z,18.60
2018-08-08T03:31:14.219Z,18.50
2018-08-08T03:33:42.717Z,18.50
2018-08-08T03:36:11.256Z,18.50
2018-08-08T03:38:39.753Z,18.50
2018-08-08T03:41:08.241Z,18.50
2018-08-08T03:43:36.724Z,18.50
2018-08-08T03:46:05.294Z,18.50
2018-08-08T03:48:33.853Z,18.40
2018-08-08T03:51:02.365Z,18.40
2018-08-08T03:53:30.847Z,18.40
2018-08-08T03:55:59.323Z,18.40
2018-08-08T03:58:28.221Z,18.50
2018-08-08T04:00:56.842Z,18.50
2018-08-08T04:03:25.314Z,18.50
2018-08-08T04:05:53.797Z,18.50
2018-08-08T04:08:22.341Z,18.50
2018-08-08T04:10:50.866Z,18.50
2018-08-08T04:13:19.345Z,18.50
2018-08-08T04:15:47.857Z,18.50
2018-08-08T04:18:16.454Z,18.50
2018-08-08T04:20:45.000Z,18.50
2018-08-08T04:23:13.497Z,18.50
2018-08-08T04:25:42.006Z,18.60
2018-08-08T04:28:10.549Z,18.60
2018-08-08T04:30:39.043Z,18.60
2018-08-08T04:33:07.777Z,18.70
2018-08-08T04:35:36.285Z,18.70
2018-08-08T04:38:04.979Z,18.80
2018-08-08T04:40:33.497Z,18.80
2018-08-08T04:43:02.052Z,18.80
2018-08-08T04:45:30.525Z,18.90
2018-08-08T04:47:59.077Z,18.90
2018-08-08T04:50:27.530Z,18.90
2018-08-08T04:52:56.042Z,19.00
2018-08-08T04:55:24.507Z,19.00
2018-08-08T04:57:53.125Z,19.10
2018-08-08T05:00:21.726Z,19.20
2018-08-08T05:02:50.280Z,19.30
2018-08-08T05:05:18.829Z,19.40
2018-08-08T05:07:47.327Z,19.40
2018-08-08T05:10:15.882Z,19.60
2018-08-08T05:12:44.423Z,19.70
2018-08-08T05:15:15.484Z,19.90
2018-08-08T05:17:44.653Z,20.00
2018-08-08T05:20:13.959Z,20.10
2018-08-08T05:22:42.645Z,20.20
2018-08-08T05:25:11.149Z,20.40
2018-08-08T05:27:39.629Z,20.40
2018-08-08T05:30:15.105Z,20.70
2018-08-08T05:32:44.561Z,20.80
2018-08-08T05:35:14.200Z,21.00
2018-08-08T05:37:42.873Z,20.90
2018-08-08T05:40:22.137Z,21.20
2018-08-08T05:42:51.666Z,21.30
2018-08-08T05:45:20.597Z,21.60
2018-08-08T05:47:50.306Z,21.80
2018-08-08T05:50:18.814Z,22.10
2018-08-08T05:52:47.348Z,22.30
2018-08-08T05:55:16.893Z,22.40
2018-08-08T05:57:46.001Z,22.70
2018-08-08T06:00:20.345Z,22.90
2018-08-08T06:02:48.900Z,23.10
2018-08-08T06:05:17.551Z,23.30
2018-08-08T06:07:46.188Z,23.30
2018-08-08T06:10:14.697Z,23.60
2018-08-08T06:12:43.281Z,24.00
2018-08-08T06:15:13.542Z,24.20
2018-08-08T06:17:42.248Z,24.50
2018-08-08T06:20:14.862Z,24.70
2018-08-08T06:22:44.221Z,24.80
2018-08-08T06:25:12.851Z,24.90
2018-08-08T06:27:41.920Z,24.70
2018-08-08T06:30:22.841Z,24.80
2018-08-08T06:32:52.021Z,24.60
2018-08-08T06:35:22.473Z,24.80
2018-08-08T06:37:51.129Z,24.90
2018-08-08T06:40:19.614Z,25.10
2018-08-08T06:42:48.367Z,25.40
2018-08-08T06:45:19.124Z,25.60
2018-08-08T06:47:47.779Z,25.70
2018-08-08T06:50:16.736Z,26.00
2018-08-08T06:52:45.408Z,26.10
2018-08-08T06:55:15.046Z,26.20
2018-08-08T06:57:43.557Z,26.30
2018-08-08T07:00:18.072Z,26.50
2018-08-08T07:02:46.630Z,26.60
2018-08-08T07:05:16.305Z,26.90
2018-08-08T07:07:44.993Z,26.80
2018-08-08T07:10:13.477Z,27.10
2018-08-08T07:12:41.968Z,27.30
2018-08-08T07:15:12.250Z,27.50
2018-08-08T07:17:40.765Z,27.80
2018-08-08T07:20:11.165Z,27.80
2018-08-08T07:22:39.677Z,28.00
2018-08-08T07:25:10.186Z,28.20
2018-08-08T07:27:38.716Z,28.30
2018-08-08T07:30:09.141Z,28.40
2018-08-08T07:32:38.014Z,28.40
2018-08-08T07:35:07.086Z,28.60
2018-08-08T07:37:35.870Z,28.70
2018-08-08T07:40:06.900Z,28.80
2018-08-08T07:42:37.389Z,28.90
2018-08-08T07:45:07.729Z,28.80
2018-08-08T07:47:36.241Z,28.90
2018-08-08T07:50:05.598Z,28.90
2018-08-08T07:52:34.157Z,29.20
2018-08-08T07:55:02.653Z,29.50
2018-08-08T07:57:31.165Z,29.30
2018-08-08T07:59:59.676Z,29.40
2018-08-08T08:02:28.187Z,29.30
2018-08-08T08:04:56.825Z,29.70
2018-08-08T08:07:25.301Z,29.70
2018-08-08T08:09:53.821Z,29.60
2018-08-08T08:12:22.326Z,29.90
2018-08-08T08:14:50.798Z,29.70
2018-08-08T08:17:19.310Z,29.90
2018-08-08T08:19:47.773Z,29.90
2018-08-08T08:22:16.259Z,29.90
2018-08-08T08:24:44.718Z,30.10
2018-08-08T08:27:13.202Z,30.40
2018-08-08T08:29:41.725Z,30.20
2018-08-08T08:32:10.233Z,30.30
2018-08-08T08:34:38.969Z,30.40
2018-08-08T08:37:07.505Z,30.50
2018-08-08T08:39:35.996Z,30.80
2018-08-08T08:42:04.613Z,30.70
2018-08-08T08:44:33.064Z,30.80
2018-08-08T08:47:01.546Z,31.00
2018-08-08T08:49:29.989Z,31.20
2018-08-08T08:51:58.477Z,31.30
2018-08-08T08:54:27.027Z,31.50
2018-08-08T08:56:55.461Z,31.80
2018-08-08T08:59:23.933Z,31.70
2018-08-08T09:01:52.465Z,31.90
2018-08-08T09:04:20.961Z,31.40
2018-08-08T09:06:49.469Z,31.60
2018-08-08T09:09:18.057Z,32.20
2018-08-08T09:11:46.550Z,32.40
2018-08-08T09:14:15.138Z,32.50
2018-08-08T09:16:43.661Z,32.50
2018-08-08T09:19:12.198Z,32.90
2018-08-08T09:21:40.713Z,33.10
2018-08-08T09:24:09.157Z,32.80
2018-08-08T09:26:37.675Z,32.70
2018-08-08T09:29:06.145Z,32.80
2018-08-08T09:31:34.661Z,33.00
2018-08-08T09:34:03.189Z,33.00
2018-08-08T09:36:31.693Z,33.40
2018-08-08T09:39:00.141Z,32.80
2018-08-08T09:41:28.783Z,32.80
2018-08-08T09:43:57.268Z,33.00
2018-08-08T09:46:25.789Z,33.50
2018-08-08T09:48:54.405Z,34.20
2018-08-08T09:51:22.877Z,34.50
2018-08-08T09:53:51.393Z,34.70
2018-08-08T09:56:19.940Z,34.90
2018-08-08T09:58:48.605Z,34.70
2018-08-08T10:01:22.476Z,35.00
2018-08-08T10:03:56.260Z,35.00
2018-08-08T10:06:24.757Z,34.90
2018-08-08T10:08:53.241Z,34.80
2018-08-08T10:11:21.701Z,35.10
2018-08-08T10:13:50.213Z,35.10
2018-08-08T10:16:18.694Z,34.90
2018-08-08T10:18:47.229Z,34.80
2018-08-08T10:21:15.856Z,34.90
2018-08-08T10:23:44.340Z,34.90
2018-08-08T10:26:12.831Z,34.50
2018-08-08T10:28:41.326Z,34.50
2018-08-08T10:31:09.796Z,34.30
2018-08-08T10:33:38.339Z,34.20
2018-08-08T10:36:07.524Z,34.30
2018-08-08T10:38:36.105Z,34.20
2018-08-08T10:41:04.686Z,34.10
2018-08-08T10:43:33.181Z,33.90
2018-08-08T10:46:01.692Z,33.80
2018-08-08T10:48:30.382Z,34.00
2018-08-08T10:50:58.839Z,33.70
2018-08-08T10:53:27.301Z,33.50
2018-08-08T10:55:55.820Z,33.50
2018-08-08T10:58:24.399Z,33.40
2018-08-08T11:00:52.957Z,33.40
2018-08-08T11:03:21.456Z,33.30
2018-08-08T11:05:49.930Z,33.10
2018-08-08T11:08:18.385Z,32.70
2018-08-08T11:10:46.913Z,32.80
2018-08-08T11:13:15.366Z,32.80
2018-08-08T11:15:43.830Z,32.40
2018-08-08T11:18:12.344Z,32.20
2018-08-08T11:20:40.810Z,32.20
2018-08-08T11:23:09.309Z,32.50
2018-08-08T11:25:37.766Z,32.60
2018-08-08T11:28:06.258Z,32.40
2018-08-08T11:30:34.793Z,32.20
2018-08-08T11:33:03.261Z,32.30
2018-08-08T11:35:31.723Z,32.50
2018-08-08T11:38:00.222Z,32.80
2018-08-08T11:40:28.782Z,32.80
2018-08-08T11:42:57.341Z,32.60
2018-08-08T11:45:25.834Z,32.60
2018-08-08T11:47:54.355Z,32.70
2018-08-08T11:50:22.873Z,32.80
2018-08-08T11:52:51.375Z,32.70
2018-08-08T11:55:19.930Z,32.70
2018-08-08T11:57:48.392Z,32.70
2018-08-08T12:00:16.941Z,32.80
2018-08-08T12:02:46.413Z,32.90
2018-08-08T12:05:14.870Z,33.10
2018-08-08T12:07:43.453Z,33.10
2018-08-08T12:10:12.057Z,32.90
2018-08-08T12:12:40.629Z,32.90
2018-08-08T12:15:10.161Z,32.90
2018-08-08T12:17:38.638Z,33.00
2018-08-08T12:20:07.208Z,32.90
2018-08-08T12:22:35.736Z,32.90
2018-08-08T12:25:04.562Z,32.90
2018-08-08T12:27:32.997Z,32.90
2018-08-08T12:30:01.503Z,32.90
2018-08-08T12:32:29.980Z,32.90
2018-08-08T12:34:58.503Z,33.00
2018-08-08T12:37:26.989Z,33.00
2018-08-08T12:39:55.507Z,33.00
2018-08-08T12:42:23.997Z,32.80
2018-08-08T12:44:52.498Z,32.90
2018-08-08T12:47:21.493Z,32.90
2018-08-08T12:49:49.954Z,32.90
2018-08-08T12:52:18.447Z,32.80
2018-08-08T12:54:47.114Z,32.80
2018-08-08T12:57:15.638Z,32.80
2018-08-08T12:59:44.121Z,32.70
2018-08-08T13:02:12.714Z,32.70
2018-08-08T13:04:41.085Z,32.60
2018-08-08T13:07:09.688Z,32.40
2018-08-08T13:09:38.233Z,32.50
2018-08-08T13:12:06.794Z,32.50
2018-08-08T13:14:35.261Z,32.40
2018-08-08T13:17:03.762Z,32.40
2018-08-08T13:19:32.261Z,32.30
2018-08-08T13:22:00.769Z,32.10
2018-08-08T13:24:29.249Z,31.90
2018-08-08T13:26:57.818Z,31.90
2018-08-08T13:29:26.302Z,31.80
2018-08-08T13:31:54.767Z,31.80
2018-08-08T13:34:23.326Z,31.80
2018-08-08T13:36:51.863Z,31.80
2018-08-08T13:39:20.450Z,31.70
2018-08-08T13:41:49.073Z,31.50
2018-08-08T13:44:17.493Z,31.50
2018-08-08T13:46:46.586Z,31.30
2018-08-08T13:49:15.078Z,31.30
2018-08-08T13:51:43.528Z,31.00
2018-08-08T13:54:12.009Z,30.60
2018-08-08T13:56:40.534Z,30.60
2018-08-08T13:59:09.235Z,30.60
2018-08-08T14:01:37.783Z,30.40
2018-08-08T14:04:06.438Z,30.30
2018-08-08T14:06:35.057Z,30.10
2018-08-08T14:09:03.605Z,30.00
2018-08-08T14:11:32.096Z,29.90
2018-08-08T14:14:00.536Z,30.00
2018-08-08T14:16:29.189Z,30.10
2018-08-08T14:18:57.686Z,29.80
2018-08-08T14:21:26.219Z,29.80
2018-08-08T14:23:54.841Z,29.90
2018-08-08T14:26:23.362Z,30.00
2018-08-08T14:28:51.882Z,30.20
2018-08-08T14:31:20.475Z,30.20
2018-08-08T14:33:49.116Z,30.20
2018-08-08T14:36:17.653Z,30.20
2018-08-08T14:38:46.136Z,30.20
2018-08-08T14:41:14.711Z,30.20
2018-08-08T14:43:43.241Z,30.30
2018-08-08T14:46:11.709Z,30.40
2018-08-08T14:48:40.329Z,30.30
2018-08-08T14:51:09.305Z,30.40
2018-08-08T14:53:37.809Z,30.50
2018-08-08T14:56:06.861Z,30.50
2018-08-08T14:58:35.373Z,30.60
2018-08-08T15:01:03.981Z,30.50
2018-08-08T15:03:32.522Z,30.50
2018-08-08T15:06:01.919Z,30.50
2018-08-08T15:08:30.361Z,30.50
2018-08-08T15:10:58.829Z,30.60
2018-08-08T15:13:27.649Z,30.80
2018-08-08T15:15:56.242Z,30.90
2018-08-08T15:18:24.762Z,30.90
2018-08-08T15:20:53.237Z,30.90
2018-08-08T15:23:21.798Z,30.80
2018-08-08T15:25:50.241Z,30.50
2018-08-08T15:28:18.729Z,30.50
2018-08-08T15:30:47.355Z,30.50
2018-08-08T15:33:15.937Z,30.60
2018-08-08T15:35:44.509Z,30.50
2018-08-08T15:38:13.030Z,30.50
2018-08-08T15:40:41.562Z,30.50
2018-08-08T15:43:10.262Z,30.40
2018-08-08T15:45:38.709Z,30.50
2018-08-08T15:48:07.372Z,30.50
2018-08-08T15:50:35.834Z,30.60
2018-08-08T15:53:04.453Z,30.50
2018-08-08T15:55:33.779Z,30.50
2018-08-08T15:58:02.923Z,30.50
2018-08-08T16:00:31.376Z,30.40
2018-08-08T16:02:59.921Z,30.40
2018-08-08T16:05:28.366Z,30.40
2018-08-08T16:07:56.917Z,30.20
2018-08-08T16:10:25.389Z,30.30
2018-08-08T16:12:54.777Z,30.30
2018-08-08T16:15:28.843Z,30.10
2018-08-08T16:17:57.493Z,30.00
2018-08-08T16:20:26.002Z,30.00
2018-08-08T16:22:54.518Z,30.00
2018-08-08T16:25:23.017Z,30.00
2018-08-08T16:27:51.550Z,30.00
2018-08-08T16:30:20.095Z,30.00
2018-08-08T16:32:49.022Z,30.00
2018-08-08T16:35:17.490Z,29.90
2018-08-08T16:37:46.001Z,29.80
2018-08-08T16:40:14.850Z,29.80
2018-08-08T16:42:43.337Z,29.70
2018-08-08T16:45:11.829Z,29.70
2018-08-08T16:47:40.406Z,29.70
2018-08-08T16:50:09.830Z,29.60
2018-08-08T16:52:38.329Z,29.60
2018-08-08T16:55:07.396Z,29.50
2018-08-08T16:57:36.055Z,29.40
2018-08-08T17:00:06.845Z,29.30
2018-08-08T17:02:35.379Z,29.30
2018-08-08T17:05:03.935Z,29.30
2018-08-08T17:07:32.438Z,29.20
2018-08-08T17:10:00.905Z,29.10
2018-08-08T17:12:29.418Z,29.00
2018-08-08T17:14:57.960Z,29.00
2018-08-08T17:17:26.466Z,28.90
2018-08-08T17:19:54.990Z,28.90
2018-08-08T17:22:23.426Z,28.80
2018-08-08T17:24:51.909Z,28.80
2018-08-08T17:27:20.438Z,28.80
2018-08-08T17:29:48.950Z,28.70
2018-08-08T17:32:17.577Z,28.70
2018-08-08T17:34:46.113Z,28.60
2018-08-08T17:37:14.605Z,28.50
2018-08-08T17:39:43.072Z,28.50
2018-08-08T17:42:11.621Z,28.40
2018-08-08T17:44:40.110Z,28.40
2018-08-08T17:47:08.649Z,28.40
2018-08-08T17:49:37.169Z,28.30
2018-08-08T17:52:05.841Z,28.30
2018-08-08T17:54:34.376Z,28.30
2018-08-08T17:57:02.831Z,28.20
2018-08-08T17:59:31.339Z,28.20
2018-08-08T18:01:59.895Z,28.10
2018-08-08T18:04:28.357Z,28.10
2018-08-08T18:06:56.921Z,28.00
2018-08-08T18:09:25.954Z,27.90
2018-08-08T18:11:54.431Z,27.90
2018-08-08T18:14:23.784Z,27.80
2018-08-08T18:16:52.281Z,27.80
2018-08-08T18:19:20.781Z,27.70
2018-08-08T18:21:49.310Z,27.70
2018-08-08T18:24:17.823Z,27.60
2018-08-08T18:26:46.279Z,27.60
2018-08-08T18:29:14.804Z,27.60
2018-08-08T18:31:43.628Z,27.50
2018-08-08T18:34:12.154Z,27.50
2018-08-08T18:36:40.639Z,27.40
2018-08-08T18:39:09.929Z,27.40
2018-08-08T18:41:38.613Z,27.30
2018-08-08T18:44:07.316Z,27.30
2018-08-08T18:46:36.052Z,27.20
2018-08-08T18:49:04.575Z,27.20
2018-08-08T18:51:33.114Z,27.20
2018-08-08T18:54:01.892Z,27.10
2018-08-08T18:56:30.538Z,27.10
2018-08-08T18:58:59.013Z,27.00
2018-08-08T19:01:28.450Z,27.00
2018-08-08T19:03:57.038Z,26.90
2018-08-08T19:06:25.664Z,26.90
2018-08-08T19:08:54.082Z,26.80
2018-08-08T19:11:22.537Z,26.80
2018-08-08T19:13:51.039Z,26.80
2018-08-08T19:16:19.500Z,26.80
2018-08-08T19:18:47.982Z,26.70
2018-08-08T19:21:16.474Z,26.60
2018-08-08T19:23:45.003Z,26.50
2018-08-08T19:26:13.537Z,26.40
2018-08-08T19:28:42.029Z,26.30
2018-08-08T19:31:10.740Z,26.20
2018-08-08T19:33:39.281Z,26.20
2018-08-08T19:36:07.775Z,26.20
2018-08-08T19:38:36.273Z,26.10
2018-08-08T19:41:05.697Z,26.10
2018-08-08T19:43:34.182Z,26.10
2018-08-08T19:46:02.700Z,26.00
2018-08-08T19:48:31.185Z,26.00
2018-08-08T19:51:00.166Z,25.90
2018-08-08T19:53:31.454Z,26.00
2018-08-08T19:56:00.056Z,25.90
2018-08-08T19:58:28.526Z,25.80
2018-08-08T20:00:57.078Z,25.80
2018-08-08T20:03:25.564Z,25.70
2018-08-08T20:05:54.102Z,25.70
2018-08-08T20:08:24.664Z,25.60
2018-08-08T20:10:54.333Z,25.60
2018-08-08T20:13:22.926Z,25.60
2018-08-08T20:15:59.253Z,25.50
2018-08-08T20:18:28.086Z,25.50
2018-08-08T20:20:57.557Z,25.40
2018-08-08T20:23:26.090Z,25.40
2018-08-08T20:25:54.667Z,25.40
2018-08-08T20:28:23.117Z,25.40
2018-08-08T20:30:51.739Z,25.30
2018-08-08T20:33:20.854Z,25.30
2018-08-08T20:35:49.799Z,25.20
2018-08-08T20:38:18.507Z,25.30
2018-08-08T20:40:47.020Z,25.20
2018-08-08T20:43:15.478Z,25.10
2018-08-08T20:45:43.989Z,25.10
2018-08-08T20:48:12.511Z,25.10
2018-08-08T20:50:41.013Z,25.00
2018-08-08T20:53:09.594Z,25.00
2018-08-08T20:55:38.249Z,25.00
2018-08-08T20:58:06.800Z,25.00
2018-08-08T21:00:35.585Z,25.00
2018-08-08T21:03:04.563Z,25.00
2018-08-08T21:05:33.128Z,24.90
2018-08-08T21:08:01.622Z,24.90
2018-08-08T21:10:30.232Z,24.80
2018-08-08T21:12:58.734Z,24.80
2018-08-08T21:15:27.259Z,24.80
2018-08-08T21:17:55.746Z,24.80
2018-08-08T21:20:24.247Z,24.80
2018-08-08T21:22:52.771Z,24.80
2018-08-08T21:25:21.258Z,24.70
2018-08-08T21:27:50.033Z,24.70
2018-08-08T21:30:18.591Z,24.70
2018-08-08T21:32:47.102Z,24.60
2018-08-08T21:35:15.671Z,24.60
2018-08-08T21:37:44.216Z,24.60
2018-08-08T21:40:12.820Z,24.50
2018-08-08T21:42:41.501Z,24.50
2018-08-08T21:45:11.505Z,24.50
2018-08-08T21:47:40.115Z,24.50
2018-08-08T21:50:08.795Z,24.50
2018-08-08T21:52:37.318Z,24.50
2018-08-08T21:55:16.898Z,24.40
2018-08-08T21:57:56.654Z,24.40
2018-08-08T22:02:43.322Z,24.40
2018-08-08T22:05:22.821Z,24.40
2018-08-08T22:08:02.330Z,24.30
2018-08-08T22:10:41.906Z,24.30
2018-08-08T22:13:21.621Z,24.30
2018-08-08T22:16:01.306Z,24.30
2018-08-08T22:18:40.874Z,24.20
2018-08-08T22:21:09.401Z,24.20
2018-08-08T22:23:37.880Z,24.20
2018-08-08T22:26:06.922Z,24.20
2018-08-08T22:28:35.417Z,24.20
2018-08-08T22:31:03.955Z,24.10
2018-08-08T22:33:32.506Z,24.10
2018-08-08T22:36:01.028Z,24.10
2018-08-08T22:38:29.581Z,24.00
2018-08-08T22:40:58.137Z,24.00
2018-08-08T22:43:27.295Z,24.00
2018-08-08T22:45:55.785Z,24.00
2018-08-08T22:48:24.262Z,24.00
2018-08-08T22:50:52.806Z,24.00
2018-08-08T22:53:21.273Z,23.90
2018-08-08T22:55:49.778Z,23.80
2018-08-08T22:58:18.464Z,23.80
2018-08-08T23:00:46.938Z,23.80
2018-08-08T23:03:15.446Z,23.80
2018-08-08T23:05:43.967Z,23.80
2018-08-08T23:08:12.510Z,23.80
2018-08-08T23:10:41.061Z,23.70
2018-08-08T23:13:09.679Z,23.70
2018-08-08T23:15:38.217Z,23.70
2018-08-08T23:18:06.889Z,23.70
2018-08-08T23:20:35.416Z,23.60
2018-08-08T23:23:03.931Z,23.60
2018-08-08T23:25:32.472Z,23.60
2018-08-08T23:28:01.029Z,23.60
2018-08-08T23:30:29.505Z,23.60
2018-08-08T23:32:58.039Z,23.60
2018-08-08T23:35:26.529Z,23.50
2018-08-08T23:37:55.069Z,23.40
2018-08-08T23:40:23.629Z,23.40
2018-08-08T23:42:52.109Z,23.30
2018-08-08T23:45:20.589Z,23.30
2018-08-08T23:47:49.081Z,23.30
2018-08-08T23:50:17.569Z,23.30
2018-08-08T23:52:46.110Z,23.30
2018-08-08T23:55:14.653Z,23.20
2018-08-08T23:57:43.122Z,23.20
